Time;durP1;ratioP1;P1;durP2;ratioP2;P2;SDS_P1;SDS_P2;PMS_P1;PMS_P2;Temp;Humidity;BMP_temperature;BMP_pressure;BME280_temperature;BME280_humidity;BME280_pressure;Samples;Min_cycle;Max_cycle;Signal;HPM_P1;HPM_P2
2022/09/22 00:01:51;;;;;;;1.97;1.17;;;8.00;99.90;;;;;;21088133;28;20501;-79
2022/09/22 00:11:53;;;;;;;1.50;1.00;;;8.20;99.90;;;;;;21095150;28;20032;-79
2022/09/22 00:21:54;;;;;;;2.20;1.10;;;8.20;99.90;;;;;;21114659;28;20032;-79
2022/09/22 00:31:56;;;;;;;3.78;1.30;;;8.00;99.90;;;;;;21080530;28;20549;-79
2022/09/22 00:41:56;;;;;;;4.68;1.30;;;8.00;99.90;;;;;;21105628;28;20295;-79
2022/09/22 00:51:57;;;;;;;1.87;1.20;;;8.10;99.90;;;;;;21117316;28;20031;-79
2022/09/22 01:01:58;;;;;;;3.23;1.27;;;8.30;99.90;;;;;;21120852;28;20032;-79
2022/09/22 01:12:01;;;;;;;3.93;1.50;;;8.20;99.90;;;;;;21117416;28;20115;-79
2022/09/22 01:22:15;;;;;;;1.92;1.23;;;8.10;99.90;;;;;;21138284;22;20046;-74
2022/09/22 01:32:25;;;;;;;1.80;1.20;;;8.00;99.90;;;;;;21151746;28;20486;-75
2022/09/22 01:42:34;;;;;;;3.13;1.20;;;7.60;99.90;;;;;;21087033;28;20090;-75
2022/09/22 01:52:39;;;;;;;1.70;1.15;;;7.70;99.90;;;;;;21086421;28;20032;-75
2022/09/22 02:02:59;;;;;;;5.28;1.40;;;7.40;99.90;;;;;;21084511;28;20043;-75
2022/09/22 02:13:00;;;;;;;6.07;2.10;;;6.80;99.90;;;;;;21084831;28;20447;-75
2022/09/22 02:23:01;;;;;;;2.03;1.48;;;6.40;99.90;;;;;;21083605;28;20559;-75
2022/09/22 02:33:03;;;;;;;2.90;1.53;;;6.90;99.90;;;;;;21088661;28;20097;-75
2022/09/22 02:43:04;;;;;;;2.60;1.15;;;6.90;99.90;;;;;;21082656;28;20504;-73
2022/09/22 02:53:13;;;;;;;1.93;1.37;;;6.70;99.90;;;;;;21081639;28;20032;-75
2022/09/22 03:03:13;;;;;;;2.50;1.40;;;6.50;99.90;;;;;;21079263;28;20036;-75
2022/09/22 03:13:14;;;;;;;3.20;1.67;;;6.70;99.90;;;;;;21079763;28;20028;-75
2022/09/22 03:23:15;;;;;;;5.73;1.43;;;6.40;99.90;;;;;;21077946;28;20036;-75
2022/09/22 03:33:16;;;;;;;2.43;1.53;;;6.50;99.90;;;;;;21078907;28;20124;-75
2022/09/22 03:43:17;;;;;;;2.13;1.80;;;6.40;99.90;;;;;;21076731;28;20409;-76
2022/09/22 03:53:18;;;;;;;3.17;1.13;;;6.30;99.90;;;;;;21073393;28;20498;-76
2022/09/22 04:03:19;;;;;;;2.00;1.17;;;6.30;99.90;;;;;;21075511;28;20085;-75
2022/09/22 04:13:19;;;;;;;1.90;1.30;;;6.20;99.90;;;;;;21076191;28;20056;-75
2022/09/22 04:23:20;;;;;;;2.57;1.60;;;6.20;99.90;;;;;;21076304;28;20043;-74
2022/09/22 04:33:21;;;;;;;7.97;1.73;;;6.10;99.90;;;;;;21052678;28;20114;-76
2022/09/22 04:43:22;;;;;;;1.77;1.40;;;6.00;99.90;;;;;;21038766;28;20040;-74
2022/09/22 04:53:23;;;;;;;6.43;1.50;;;5.80;99.90;;;;;;21009781;28;20028;-76
2022/09/22 05:03:24;;;;;;;2.10;1.60;;;5.80;99.90;;;;;;21033146;28;20289;-76
2022/09/22 05:13:25;;;;;;;3.13;1.83;;;5.70;99.90;;;;;;21005272;28;20090;-77
2022/09/22 05:23:26;;;;;;;4.47;2.00;;;5.60;99.90;;;;;;21004047;28;20036;-76
2022/09/22 05:33:27;;;;;;;3.47;2.05;;;5.40;99.90;;;;;;21018567;28;20050;-77
2022/09/22 05:43:28;;;;;;;2.35;1.98;;;5.30;99.90;;;;;;21018071;28;20043;-77
2022/09/22 05:53:29;;;;;;;2.15;1.70;;;5.40;99.90;;;;;;21091144;28;20389;-77
2022/09/22 06:03:30;;;;;;;13.30;2.27;;;6.00;99.90;;;;;;21103632;28;20028;-76
2022/09/22 06:13:31;;;;;;;5.70;1.70;;;6.60;99.90;;;;;;21066088;28;20040;-76
2022/09/22 06:23:32;;;;;;;2.50;1.77;;;6.90;99.90;;;;;;21027016;28;20111;-77
2022/09/22 06:33:32;;;;;;;2.43;1.83;;;7.70;99.90;;;;;;21020301;28;20323;-78
2022/09/22 06:43:34;;;;;;;5.83;2.53;;;8.00;99.90;;;;;;21056809;28;20055;-76
2022/09/22 06:53:35;;;;;;;4.05;2.50;;;8.90;99.90;;;;;;21095411;28;20103;-76
2022/09/22 07:03:41;;;;;;;4.07;2.13;;;9.10;99.90;;;;;;21092742;28;20028;-77
2022/09/22 07:13:43;;;;;;;3.78;2.10;;;9.10;99.90;;;;;;21089468;28;20501;-77
2022/09/22 07:23:43;;;;;;;3.75;2.22;;;9.90;99.90;;;;;;21170413;22;20101;-79
2022/09/22 07:33:45;;;;;;;4.33;2.10;;;10.40;99.90;;;;;;21274325;27;20027;-80
2022/09/22 07:43:49;;;;;;;3.97;2.50;;;11.00;99.90;;;;;;21268670;27;20373;-80
2022/09/22 07:54:03;;;;;;;3.10;2.33;;;11.90;99.90;;;;;;21266489;27;20079;-81
2022/09/22 08:04:04;;;;;;;3.72;2.08;;;12.30;99.90;;;;;;21266544;27;20031;-80
2022/09/22 08:14:09;;;;;;;5.13;2.07;;;13.10;99.90;;;;;;21265934;27;20047;-80
2022/09/22 08:24:12;;;;;;;3.90;1.88;;;13.60;99.90;;;;;;21248169;27;20657;-80
2022/09/22 08:34:15;;;;;;;2.63;1.83;;;14.20;99.90;;;;;;21268843;27;20035;-80
2022/09/22 08:44:18;;;;;;;3.15;2.03;;;14.60;99.90;;;;;;21266054;27;20035;-79
2022/09/22 08:54:30;;;;;;;2.65;1.50;;;15.60;99.90;;;;;;21263883;28;20035;-80
2022/09/22 09:04:55;;;;;;;2.08;1.60;;;16.40;99.90;;;;;;21276533;27;20061;-79
2022/09/22 09:15:14;;;;;;;3.47;1.52;;;16.00;99.90;;;;;;21282737;27;20065;-80
2022/09/22 09:25:21;;;;;;;2.75;1.45;;;17.50;99.90;;;;;;21272333;27;20417;-79
2022/09/22 09:35:27;;;;;;;3.63;2.03;;;17.80;99.90;;;;;;21177260;28;20047;-81
2022/09/22 09:45:57;;;;;;;4.43;1.85;;;17.30;99.90;;;;;;21142478;28;20389;-79
2022/09/22 09:55:59;;;;;;;5.40;1.98;;;17.40;99.90;;;;;;21186891;28;20046;-81
2022/09/22 10:06:07;;;;;;;2.37;1.60;;;19.10;99.90;;;;;;21133340;28;20054;-82
2022/09/22 10:16:49;;;;;;;2.67;1.80;;;18.80;99.90;;;;;;21107763;28;20282;-79
2022/09/22 10:26:56;;;;;;;6.10;1.83;;;19.50;99.90;;;;;;21084651;28;20063;-81
2022/09/22 10:36:58;;;;;;;2.60;1.55;;;20.40;99.90;;;;;;21103522;28;20024;-82
2022/09/22 10:47:10;;;;;;;3.63;1.40;;;19.30;99.90;;;;;;21104851;28;20040;-81
2022/09/22 10:57:23;;;;;;;3.13;1.50;;;19.70;99.90;;;;;;21103292;28;20044;-81
2022/09/22 11:17:59;;;;;;;2.53;1.20;;;20.80;99.90;;;;;;21103186;28;20054;-82
2022/09/22 11:28:03;;;;;;;2.58;1.20;;;21.50;99.90;;;;;;21101240;28;20122;-82
2022/09/22 11:38:12;;;;;;;6.38;1.35;;;21.80;99.90;;;;;;21087867;28;20519;-82
2022/09/22 11:48:52;;;;;;;4.00;1.30;;;22.30;99.90;;;;;;21108373;28;20079;-79
2022/09/22 11:58:58;;;;;;;2.38;1.30;;;22.30;99.90;;;;;;21087650;27;20106;-80
2022/09/22 12:09:06;;;;;;;2.33;1.10;;;21.20;99.90;;;;;;21179608;28;20028;-82
2022/09/22 12:19:19;;;;;;;3.85;1.25;;;21.40;99.90;;;;;;21150497;28;20097;-81
2022/09/22 12:29:27;;;;;;;10.13;2.85;;;22.10;99.90;;;;;;21096312;28;20032;-82
2022/09/22 12:39:31;;;;;;;2.33;1.23;;;22.00;99.90;;;;;;21098278;28;20043;-80
2022/09/22 12:49:32;;;;;;;1.80;0.93;;;21.70;99.90;;;;;;21098465;28;20036;-80
2022/09/22 12:59:36;;;;;;;3.10;1.30;;;23.20;99.90;;;;;;21099734;28;20413;-79
2022/09/22 13:09:37;;;;;;;5.15;1.50;;;23.60;99.90;;;;;;21100147;28;20038;-80
2022/09/22 13:19:51;;;;;;;;;;;23.80;99.90;;;;;;21103833;28;20032;-81
2022/09/22 13:29:58;;;;;;;2.85;1.05;;;24.00;99.90;;;;;;21031894;22;19920;-79
2022/09/22 13:40:00;;;;;;;5.03;1.33;;;23.40;99.90;;;;;;20923640;28;20048;-78
2022/09/22 13:50:08;;;;;;;4.95;1.30;;;23.00;99.90;;;;;;20986328;28;20101;-78
2022/09/22 14:00:24;;;;;;;1.73;1.17;;;21.60;99.90;;;;;;21017606;28;20039;-80
2022/09/22 14:10:26;;;;;;;2.22;1.50;;;22.20;99.90;;;;;;21017242;28;20043;-79
2022/09/22 14:20:27;;;;;;;4.85;1.20;;;23.30;99.90;;;;;;20983133;28;20504;-78
2022/09/22 14:30:29;;;;;;;3.33;1.27;;;22.50;99.90;;;;;;20996587;28;20242;-79
2022/09/22 14:40:30;;;;;;;4.30;2.13;;;22.80;99.90;;;;;;20995364;28;20290;-79
2022/09/22 14:50:44;;;;;;;1.60;1.20;;;22.80;99.90;;;;;;20927168;28;20123;-77
2022/09/22 15:11:10;;;;;;;7.10;1.30;;;22.70;99.90;;;;;;20941330;28;20039;-79
2022/09/22 15:21:12;;;;;;;3.13;1.25;;;21.80;99.90;;;;;;20966279;28;20524;-79
2022/09/22 15:31:25;;;;;;;2.42;1.25;;;21.70;99.90;;;;;;20964917;28;20044;-80
2022/09/22 15:41:26;;;;;;;6.78;1.30;;;21.30;99.90;;;;;;20962382;28;20032;-80
2022/09/22 15:51:29;;;;;;;3.03;1.17;;;21.70;99.90;;;;;;21001678;28;20078;-78
2022/09/22 16:01:29;;;;;;;4.97;1.25;;;20.60;99.90;;;;;;21000676;28;20029;-78
2022/09/22 16:11:30;;;;;;;2.33;1.10;;;19.50;99.90;;;;;;20999808;28;20029;-78
2022/09/22 16:21:34;;;;;;;4.10;1.63;;;19.30;99.90;;;;;;20959720;28;20138;-79
2022/09/22 16:31:36;;;;;;;4.43;1.75;;;19.20;99.90;;;;;;21004981;28;20025;-79
2022/09/22 16:41:43;;;;;;;5.72;2.05;;;18.80;99.90;;;;;;21015561;28;20020;-79
2022/09/22 16:51:48;;;;;;;2.60;1.40;;;18.50;99.90;;;;;;21009893;28;20024;-77
2022/09/22 17:01:49;;;;;;;1.63;1.30;;;18.10;99.90;;;;;;21002340;28;20033;-77
2022/09/22 17:11:51;;;;;;;3.57;1.23;;;16.60;99.90;;;;;;20946701;28;20497;-80
2022/09/22 17:21:54;;;;;;;2.85;1.50;;;15.90;99.90;;;;;;20990512;28;20033;-79
2022/09/22 17:31:58;;;;;;;5.82;1.88;;;15.30;99.90;;;;;;21038371;28;20037;-80
2022/09/22 17:41:59;;;;;;;3.45;1.60;;;14.70;99.90;;;;;;21036578;28;20486;-80
2022/09/22 18:02:19;;;;;;;4.82;1.60;;;13.70;99.90;;;;;;21038264;28;20506;-80
2022/09/22 18:12:23;;;;;;;5.05;1.90;;;13.30;99.90;;;;;;21031908;28;20040;-79
2022/09/22 18:22:26;;;;;;;6.97;2.60;;;13.00;99.90;;;;;;20997584;28;20071;-80
2022/09/22 18:32:28;;;;;;;3.53;2.38;;;12.60;99.90;;;;;;21045164;28;20036;-79
2022/09/22 18:42:31;;;;;;;5.67;2.70;;;12.40;99.90;;;;;;21046463;28;20036;-80
2022/09/22 18:52:32;;;;;;;7.78;3.55;;;11.60;99.90;;;;;;21044139;28;20059;-79
2022/09/22 19:02:33;;;;;;;6.90;2.63;;;11.60;99.90;;;;;;21049378;28;20088;-78
2022/09/22 19:12:38;;;;;;;4.97;3.10;;;11.60;99.90;;;;;;21049709;28;20069;-78
2022/09/22 19:22:39;;;;;;;7.15;3.15;;;11.40;99.90;;;;;;21010181;22;20119;-79
2022/09/22 19:32:40;;;;;;;5.23;2.73;;;11.00;99.90;;;;;;20945078;28;20398;-80
2022/09/22 19:42:41;;;;;;;4.03;2.33;;;10.70;99.90;;;;;;20933750;28;20029;-80
2022/09/22 19:52:42;;;;;;;4.97;3.40;;;11.00;99.90;;;;;;20951442;28;20127;-81
2022/09/22 20:02:44;;;;;;;6.97;2.80;;;10.40;99.90;;;;;;20999425;28;20119;-81
2022/09/22 20:12:44;;;;;;;6.93;2.65;;;9.80;99.90;;;;;;20991281;28;20053;-81
2022/09/22 20:22:46;;;;;;;4.57;2.73;;;9.80;99.90;;;;;;20950360;28;20064;-80
2022/09/22 20:32:49;;;;;;;6.35;2.42;;;10.00;99.90;;;;;;20951682;28;20124;-80
2022/09/22 20:42:52;;;;;;;5.07;2.60;;;10.20;99.90;;;;;;20957973;28;20078;-79
2022/09/22 20:52:54;;;;;;;2.72;2.20;;;10.40;99.90;;;;;;20960035;28;20028;-80
2022/09/22 21:02:59;;;;;;;3.60;2.58;;;10.30;99.90;;;;;;20946436;28;20486;-80
2022/09/22 21:12:59;;;;;;;5.65;2.83;;;10.30;99.90;;;;;;20958540;28;20035;-80
2022/09/22 21:23:01;;;;;;;5.40;2.70;;;9.50;99.90;;;;;;20969985;28;20025;-79
2022/09/22 21:33:02;;;;;;;2.75;2.00;;;9.90;99.90;;;;;;20968714;28;20083;-80
2022/09/22 21:43:02;;;;;;;4.27;2.23;;;10.20;99.90;;;;;;20933637;28;20036;-80
2022/09/22 21:53:03;;;;;;;3.57;2.40;;;10.20;99.90;;;;;;20931453;28;20498;-78
2022/09/22 22:13:23;;;;;;;5.90;2.40;;;10.20;99.90;;;;;;20929710;28;20029;-81
2022/09/22 22:23:27;;;;;;;4.43;2.00;;;10.10;99.90;;;;;;20912452;28;20043;-81
2022/09/22 22:33:28;;;;;;;3.47;2.20;;;10.00;99.90;;;;;;20932747;28;20442;-80
2022/09/22 22:43:30;;;;;;;4.20;2.10;;;9.90;99.90;;;;;;20949035;28;20494;-80
2022/09/22 22:53:31;;;;;;;2.50;2.03;;;9.80;99.90;;;;;;20928518;28;20096;-80
2022/09/22 23:03:32;;;;;;;6.27;2.20;;;9.70;99.90;;;;;;20928536;28;20036;-81
2022/09/22 23:13:33;;;;;;;6.60;2.53;;;9.60;99.90;;;;;;20923305;28;20457;-79
2022/09/22 23:23:34;;;;;;;2.83;2.07;;;9.50;99.90;;;;;;20926575;28;20032;-81
2022/09/22 23:33:39;;;;;;;4.88;2.97;;;9.40;99.90;;;;;;20925820;28;20484;-78
2022/09/22 23:43:39;;;;;;;5.18;3.78;;;9.20;99.90;;;;;;20923577;28;20085;-80
2022/09/22 23:53:40;;;;;;;7.50;2.23;;;9.10;99.90;;;;;;20922161;28;20032;-79
